Kezdőlap
METAR-TAF:

METAR-TAF

Repülőterek :

Szöul Seongnam, Dél-Korea

földrajzi szélesség: 37-26N, földrajzi hosszúság: 127-07E, magasság: 20 m

METAR: hiányzik

Idő: 08:45 (23:45 UTC)

Előrejelzés

A jelentés 6 órával és 45 perccel ezelõtt készült, 17:00 UTC
Az előrejelzés 17-én 18 óra UTC és 18-én 24 óra UTC között érvényes
Nyugat-délnyugati szél 6 kt
Látótávolság 10 km, vagy több
Szórványos felhőzet 20000 lábon

TAF: RKSM 171700Z 1718/1824 24006KT 9999 SCT200 TN19/1722Z TX33/1806Z

Meteorológiai megfigyelések és előrejelzések több, mint 4000 repülőtéren (METAR és TAF jelentéseket).

A térképen piros és sárga pontok jelzik az elérhető meteorológiai állomásokat.

Mozgassa az egeret a pont fölött, hogy megjelenjen az állomás neve.

Azután kattintson az időjárási megfigyelések és előrejelzések megtekintéséhez.

A térkép megváltoztatása: kattintson a fekete keresztel jelölt zöld gombra ráközelítéshez, a vonallal jelölt zöld gombra távolításhoz, vagy a zöld nyilakra a szomszédos térképek eléréséhez.


METAR-TAF: